createdAt,value
2019-02-25T00:00:38.767Z,1032.78
2019-02-25T00:01:38.955Z,1032.83
2019-02-25T00:03:38.569Z,1032.83
2019-02-25T00:04:38.561Z,1032.79
2019-02-25T00:05:39.049Z,1032.78
2019-02-25T00:06:39.847Z,1032.79
2019-02-25T00:07:38.924Z,1032.80
2019-02-25T00:08:38.720Z,1032.78
2019-02-25T00:09:38.923Z,1032.78
2019-02-25T00:10:38.500Z,1032.75
2019-02-25T00:11:38.708Z,1032.74
2019-02-25T00:12:38.502Z,1032.76
2019-02-25T00:13:38.491Z,1032.75
2019-02-25T00:14:38.501Z,1032.72
2019-02-25T00:15:39.091Z,1032.77
2019-02-25T00:16:38.521Z,1032.74
2019-02-25T00:17:38.463Z,1032.74
2019-02-25T00:18:38.876Z,1032.78
2019-02-25T00:19:39.516Z,1032.77
2019-02-25T00:20:38.661Z,1032.75
2019-02-25T00:22:38.657Z,1032.76
2019-02-25T00:23:39.157Z,1032.77
2019-02-25T00:24:39.372Z,1032.76
2019-02-25T00:26:38.426Z,1032.76
2019-02-25T00:27:38.417Z,1032.75
2019-02-25T00:29:38.601Z,1032.78
2019-02-25T00:30:38.389Z,1032.77
2019-02-25T00:31:38.596Z,1032.80
2019-02-25T00:33:38.374Z,1032.86
2019-02-25T00:34:38.386Z,1032.76
2019-02-25T00:36:38.748Z,1032.79
2019-02-25T00:37:39.672Z,1032.79
2019-02-25T00:38:38.353Z,1032.73
2019-02-25T00:39:38.778Z,1032.76
2019-02-25T00:40:38.558Z,1032.77
2019-02-25T00:41:38.552Z,1032.75
2019-02-25T00:42:38.729Z,1032.77
2019-02-25T00:43:38.346Z,1032.80
2019-02-25T00:45:38.720Z,1032.82
2019-02-25T00:47:38.707Z,1032.83
2019-02-25T00:50:38.683Z,1032.80
2019-02-25T00:51:38.481Z,1032.85
2019-02-25T00:52:38.974Z,1032.83
2019-02-25T00:53:38.471Z,1032.79
2019-02-25T00:55:38.473Z,1032.80
2019-02-25T00:56:38.757Z,1032.80
2019-02-25T00:57:38.539Z,1032.79
2019-02-25T00:58:38.452Z,1032.81
2019-02-25T01:01:38.221Z,1032.76
2019-02-25T01:02:38.639Z,1032.75
2019-02-25T01:05:38.604Z,1032.79
2019-02-25T01:07:38.179Z,1032.75
2019-02-25T01:08:39.107Z,1032.74
2019-02-25T01:11:38.560Z,1032.74
2019-02-25T01:12:38.156Z,1032.72
2019-02-25T01:13:38.158Z,1032.71
2019-02-25T01:16:38.132Z,1032.72
2019-02-25T01:19:38.319Z,1032.69
2019-02-25T01:20:38.110Z,1032.72
2019-02-25T01:23:38.089Z,1032.73
2019-02-25T01:25:38.303Z,1032.72
2019-02-25T01:27:38.264Z,1032.70
2019-02-25T01:28:38.459Z,1032.71
2019-02-25T01:29:39.386Z,1032.70
2019-02-25T01:30:38.066Z,1032.71
2019-02-25T01:35:38.012Z,1032.77
2019-02-25T01:36:38.912Z,1032.73
2019-02-25T01:37:38.017Z,1032.71
2019-02-25T01:38:38.291Z,1032.77
2019-02-25T01:39:38.604Z,1032.71
2019-02-25T01:40:38.189Z,1032.72
2019-02-25T01:41:38.382Z,1032.70
2019-02-25T01:42:37.980Z,1032.70
2019-02-25T01:44:37.968Z,1032.74
2019-02-25T01:45:37.959Z,1032.78
2019-02-25T01:46:38.677Z,1032.79
2019-02-25T01:47:38.148Z,1032.83
2019-02-25T01:49:37.948Z,1032.85
2019-02-25T01:50:38.137Z,1032.87
2019-02-25T01:51:38.331Z,1032.85
2019-02-25T01:52:38.542Z,1032.85
2019-02-25T01:53:37.914Z,1032.87
2019-02-25T01:55:38.825Z,1032.90
2019-02-25T01:56:38.712Z,1032.87
2019-02-25T01:57:38.301Z,1032.91
2019-02-25T01:59:37.877Z,1032.90
2019-02-25T02:02:38.058Z,1032.94
2019-02-25T02:03:38.573Z,1032.90
2019-02-25T02:04:38.054Z,1032.97
2019-02-25T02:06:38.035Z,1032.92
2019-02-25T02:10:38.613Z,1032.91
2019-02-25T02:11:38.013Z,1032.91
2019-02-25T02:12:38.731Z,1032.91
2019-02-25T02:13:37.796Z,1032.88
2019-02-25T02:14:37.989Z,1032.89
2019-02-25T02:15:38.087Z,1032.82
2019-02-25T02:16:38.000Z,1032.79
2019-02-25T02:18:38.180Z,1032.77
2019-02-25T02:20:37.766Z,1032.76
2019-02-25T02:22:37.766Z,1032.68
2019-02-25T02:24:37.939Z,1032.61
2019-02-25T02:25:37.929Z,1032.59
2019-02-25T02:26:37.931Z,1032.60
2019-02-25T02:27:37.720Z,1032.57
2019-02-25T02:28:37.910Z,1032.59
2019-02-25T02:29:38.105Z,1032.56
2019-02-25T02:30:38.411Z,1032.57
2019-02-25T02:31:38.425Z,1032.61
2019-02-25T02:33:37.683Z,1032.56
2019-02-25T02:34:37.870Z,1032.52
2019-02-25T02:36:37.658Z,1032.52
2019-02-25T02:37:37.862Z,1032.53
2019-02-25T02:38:37.660Z,1032.50
2019-02-25T02:39:37.844Z,1032.49
2019-02-25T02:41:37.646Z,1032.53
2019-02-25T02:42:38.243Z,1032.48
2019-02-25T02:43:37.820Z,1032.47
2019-02-25T02:44:37.831Z,1032.52
2019-02-25T02:45:40.839Z,1032.56
2019-02-25T02:46:38.111Z,1032.55
2019-02-25T02:47:38.315Z,1032.62
2019-02-25T02:48:37.607Z,1032.62
2019-02-25T02:49:37.892Z,1032.65
2019-02-25T02:50:37.580Z,1032.63
2019-02-25T02:52:38.175Z,1032.63
2019-02-25T02:53:37.583Z,1032.60
2019-02-25T02:55:37.553Z,1032.63
2019-02-25T02:56:37.969Z,1032.65
2019-02-25T02:57:37.743Z,1032.64
2019-02-25T02:58:37.544Z,1032.68
2019-02-25T02:59:37.738Z,1032.68
2019-02-25T03:00:37.816Z,1032.67
2019-02-25T03:01:37.731Z,1032.67
2019-02-25T03:03:37.728Z,1032.67
2019-02-25T03:04:37.502Z,1032.61
2019-02-25T03:05:39.110Z,1032.64
2019-02-25T03:07:37.890Z,1032.63
2019-02-25T03:09:37.472Z,1032.59
2019-02-25T03:11:38.391Z,1032.60
2019-02-25T03:12:37.662Z,1032.57
2019-02-25T03:13:37.464Z,1032.58
2019-02-25T03:14:37.645Z,1032.55
2019-02-25T03:16:37.632Z,1032.56
2019-02-25T03:19:38.135Z,1032.57
2019-02-25T03:20:37.611Z,1032.57
2019-02-25T03:21:37.598Z,1032.59
2019-02-25T03:22:37.595Z,1032.62
2019-02-25T03:23:38.087Z,1032.61
2019-02-25T03:24:37.885Z,1032.63
2019-02-25T03:28:37.555Z,1032.61
2019-02-25T03:29:37.569Z,1032.59
2019-02-25T03:30:37.556Z,1032.60
2019-02-25T03:31:37.364Z,1032.55
2019-02-25T03:33:37.346Z,1032.51
2019-02-25T03:34:37.344Z,1032.53
2019-02-25T03:35:37.317Z,1032.51
2019-02-25T03:37:37.915Z,1032.52
2019-02-25T03:38:37.807Z,1032.45
2019-02-25T03:39:37.505Z,1032.42
2019-02-25T03:41:37.302Z,1032.45
2019-02-25T03:44:39.077Z,1032.40
2019-02-25T03:45:37.249Z,1032.39
2019-02-25T03:46:37.352Z,1032.39
2019-02-25T03:47:37.239Z,1032.43
2019-02-25T03:48:37.251Z,1032.46
2019-02-25T03:49:37.943Z,1032.44
2019-02-25T03:51:37.440Z,1032.49
2019-02-25T03:52:37.434Z,1032.50
2019-02-25T03:54:37.227Z,1032.55
2019-02-25T03:55:37.395Z,1032.56
2019-02-25T03:56:37.808Z,1032.57
2019-02-25T03:58:37.385Z,1032.57
2019-02-25T04:00:37.166Z,1032.58
2019-02-25T04:01:37.557Z,1032.58
2019-02-25T04:02:37.369Z,1032.54
2019-02-25T04:04:37.646Z,1032.58
2019-02-25T04:08:37.330Z,1032.62
2019-02-25T04:09:37.139Z,1032.61
2019-02-25T04:10:37.114Z,1032.64
2019-02-25T04:11:37.103Z,1032.62
2019-02-25T04:13:37.400Z,1032.63
2019-02-25T04:14:37.293Z,1032.62
2019-02-25T04:15:37.096Z,1032.61
2019-02-25T04:17:37.379Z,1032.57
2019-02-25T04:19:37.051Z,1032.57
2019-02-25T04:20:37.063Z,1032.58
2019-02-25T04:23:37.441Z,1032.57
2019-02-25T04:24:37.540Z,1032.61
2019-02-25T04:26:37.211Z,1032.66
2019-02-25T04:28:37.589Z,1032.68
2019-02-25T04:29:37.196Z,1032.65
2019-02-25T04:30:36.988Z,1032.61
2019-02-25T04:31:37.385Z,1032.68
2019-02-25T04:32:37.186Z,1032.65
2019-02-25T04:34:37.372Z,1032.73
2019-02-25T04:35:37.165Z,1032.73
2019-02-25T04:36:38.375Z,1032.77
2019-02-25T04:37:36.950Z,1032.72
2019-02-25T04:38:37.131Z,1032.73
2019-02-25T04:39:36.934Z,1032.70
2019-02-25T04:40:38.033Z,1032.66
2019-02-25T04:41:36.914Z,1032.65
2019-02-25T04:42:36.903Z,1032.67
2019-02-25T04:43:37.109Z,1032.71
2019-02-25T04:45:37.298Z,1032.67
2019-02-25T04:46:37.395Z,1032.64
2019-02-25T04:47:36.887Z,1032.63
2019-02-25T04:48:37.695Z,1032.60
2019-02-25T04:49:37.280Z,1032.61
2019-02-25T04:50:37.472Z,1032.62
2019-02-25T04:52:37.051Z,1032.65
2019-02-25T04:53:36.838Z,1032.66
2019-02-25T04:54:37.040Z,1032.62
2019-02-25T04:55:36.824Z,1032.65
2019-02-25T04:56:36.819Z,1032.63
2019-02-25T04:57:37.221Z,1032.59
2019-02-25T04:59:37.203Z,1032.62
2019-02-25T05:00:37.426Z,1032.57
2019-02-25T05:02:37.180Z,1032.60
2019-02-25T05:03:36.801Z,1032.63
2019-02-25T05:04:36.989Z,1032.57
2019-02-25T05:05:36.993Z,1032.58
2019-02-25T05:06:37.194Z,1032.54
2019-02-25T05:07:37.168Z,1032.57
2019-02-25T05:08:36.753Z,1032.57
2019-02-25T05:09:37.148Z,1032.56
2019-02-25T05:10:36.749Z,1032.51
2019-02-25T05:11:36.933Z,1032.55
2019-02-25T05:13:37.248Z,1032.56
2019-02-25T05:15:37.628Z,1032.56
2019-02-25T05:16:37.212Z,1032.52
2019-02-25T05:18:36.669Z,1032.51
2019-02-25T05:19:36.682Z,1032.51
2019-02-25T05:22:37.591Z,1032.53
2019-02-25T05:23:37.069Z,1032.53
2019-02-25T05:24:36.848Z,1032.54
2019-02-25T05:25:37.065Z,1032.48
2019-02-25T05:26:36.629Z,1032.45
2019-02-25T05:27:36.638Z,1032.40
2019-02-25T05:28:36.617Z,1032.43
2019-02-25T05:29:36.808Z,1032.44
2019-02-25T05:30:36.661Z,1032.42
2019-02-25T05:31:37.011Z,1032.47
2019-02-25T05:32:36.592Z,1032.50
2019-02-25T05:33:36.585Z,1032.55
2019-02-25T05:35:36.581Z,1032.52
2019-02-25T05:38:36.577Z,1032.49
2019-02-25T05:39:36.549Z,1032.48
2019-02-25T05:40:36.555Z,1032.49
2019-02-25T05:41:36.549Z,1032.53
2019-02-25T05:42:36.547Z,1032.49
2019-02-25T05:43:36.542Z,1032.50
2019-02-25T05:45:36.514Z,1032.46
2019-02-25T05:48:36.707Z,1032.50
2019-02-25T05:49:36.489Z,1032.49
2019-02-25T05:50:36.667Z,1032.50
2019-02-25T05:51:36.478Z,1032.56
2019-02-25T05:52:36.678Z,1032.57
2019-02-25T05:53:36.468Z,1032.61
2019-02-25T05:54:36.679Z,1032.66
2019-02-25T05:55:37.169Z,1032.64
2019-02-25T05:56:36.745Z,1032.64
2019-02-25T05:57:36.842Z,1032.62
2019-02-25T05:58:36.635Z,1032.56
2019-02-25T05:59:36.429Z,1032.56
2019-02-25T06:00:36.394Z,1032.55
2019-02-25T06:01:36.407Z,1032.48
2019-02-25T06:02:36.616Z,1032.50
2019-02-25T06:03:36.402Z,1032.49
2019-02-25T06:04:36.422Z,1032.48
2019-02-25T06:05:36.385Z,1032.52
2019-02-25T06:06:36.566Z,1032.50
2019-02-25T06:07:36.561Z,1032.53
2019-02-25T06:08:36.367Z,1032.51
2019-02-25T06:09:36.752Z,1032.55
2019-02-25T06:10:37.060Z,1032.56
2019-02-25T06:11:36.351Z,1032.56
2019-02-25T06:13:36.547Z,1032.58
2019-02-25T06:14:36.324Z,1032.59
2019-02-25T06:15:36.679Z,1032.61
2019-02-25T06:16:36.919Z,1032.58
2019-02-25T06:17:36.811Z,1032.58
2019-02-25T06:18:36.502Z,1032.59
2019-02-25T06:19:36.302Z,1032.56
2019-02-25T06:20:36.279Z,1032.56
2019-02-25T06:21:36.478Z,1032.54
2019-02-25T06:22:36.484Z,1032.55
2019-02-25T06:23:36.247Z,1032.56
2019-02-25T06:24:36.262Z,1032.55
2019-02-25T06:27:36.252Z,1032.60
2019-02-25T06:28:36.263Z,1032.64
2019-02-25T06:29:36.932Z,1032.65
2019-02-25T06:32:36.214Z,1032.64
2019-02-25T06:33:36.707Z,1032.67
2019-02-25T06:34:36.508Z,1032.66
2019-02-25T06:35:36.191Z,1032.62
2019-02-25T06:36:36.685Z,1032.64
2019-02-25T06:38:36.181Z,1032.65
2019-02-25T06:39:36.463Z,1032.68
2019-02-25T06:40:36.741Z,1032.75
2019-02-25T06:41:36.351Z,1032.76
2019-02-25T06:42:36.127Z,1032.82
2019-02-25T06:43:36.522Z,1032.86
2019-02-25T06:44:36.434Z,1032.86
2019-02-25T06:45:36.529Z,1032.87
2019-02-25T06:46:36.327Z,1032.86
2019-02-25T06:48:36.304Z,1032.91
2019-02-25T06:49:36.092Z,1032.92
2019-02-25T06:50:36.086Z,1032.93
2019-02-25T06:51:36.388Z,1032.91
2019-02-25T06:52:36.088Z,1032.89
2019-02-25T06:53:36.283Z,1032.84
2019-02-25T06:54:36.066Z,1032.87
2019-02-25T06:55:36.264Z,1032.86
2019-02-25T06:56:36.252Z,1032.81
2019-02-25T06:59:36.240Z,1032.80
2019-02-25T07:01:36.423Z,1032.86
2019-02-25T07:04:35.992Z,1032.79
2019-02-25T07:05:36.219Z,1032.77
2019-02-25T07:06:36.191Z,1032.79
2019-02-25T07:07:36.699Z,1032.79
2019-02-25T07:08:35.993Z,1032.82
2019-02-25T07:09:36.179Z,1032.83
2019-02-25T07:11:35.945Z,1032.84
2019-02-25T07:13:35.935Z,1032.85
2019-02-25T07:15:35.917Z,1032.85
2019-02-25T07:16:35.916Z,1032.83
2019-02-25T07:17:35.898Z,1032.86
2019-02-25T07:18:35.912Z,1032.82
2019-02-25T07:19:35.891Z,1032.80
2019-02-25T07:24:36.276Z,1032.83
2019-02-25T07:26:35.883Z,1032.78
2019-02-25T07:27:35.843Z,1032.81
2019-02-25T07:28:36.677Z,1032.79
2019-02-25T07:31:36.240Z,1032.82
2019-02-25T07:32:36.219Z,1032.83
2019-02-25T07:33:35.831Z,1032.81
2019-02-25T07:34:36.009Z,1032.80
2019-02-25T07:35:35.809Z,1032.78
2019-02-25T07:36:36.006Z,1032.80
2019-02-25T07:37:35.794Z,1032.78
2019-02-25T07:39:35.769Z,1032.74
2019-02-25T07:40:35.768Z,1032.76
2019-02-25T07:41:35.784Z,1032.77
2019-02-25T07:42:36.494Z,1032.80
2019-02-25T07:43:35.948Z,1032.80
2019-02-25T07:44:35.728Z,1032.80
2019-02-25T07:45:35.775Z,1032.82
2019-02-25T07:46:35.715Z,1032.84
2019-02-25T07:47:35.728Z,1032.87
2019-02-25T07:48:35.924Z,1032.88
2019-02-25T07:49:35.706Z,1032.84
2019-02-25T07:50:36.113Z,1032.86
2019-02-25T07:51:35.726Z,1032.87
2019-02-25T07:53:36.089Z,1032.86
2019-02-25T07:54:36.482Z,1032.84
2019-02-25T07:56:35.665Z,1032.89
2019-02-25T07:57:35.673Z,1032.94
2019-02-25T07:58:36.180Z,1032.93
2019-02-25T07:59:35.660Z,1032.93
2019-02-25T08:00:35.660Z,1032.91
2019-02-25T08:02:35.835Z,1032.90
2019-02-25T08:05:35.596Z,1032.99
2019-02-25T08:08:36.125Z,1033.08
2019-02-25T08:09:35.905Z,1033.11
2019-02-25T08:10:35.620Z,1033.13
2019-02-25T08:11:35.592Z,1033.09
2019-02-25T08:12:35.569Z,1033.13
2019-02-25T08:13:35.758Z,1033.13
2019-02-25T08:14:35.974Z,1033.15
2019-02-25T08:15:35.978Z,1033.19
2019-02-25T08:17:35.761Z,1033.14
2019-02-25T08:18:35.543Z,1033.20
2019-02-25T08:19:35.839Z,1033.16
2019-02-25T08:21:35.518Z,1033.19
2019-02-25T08:22:35.722Z,1033.21
2019-02-25T08:25:36.612Z,1033.26
2019-02-25T08:27:35.697Z,1033.38
2019-02-25T08:28:35.493Z,1033.41
2019-02-25T08:29:35.487Z,1033.40
2019-02-25T08:31:35.676Z,1033.41
2019-02-25T08:32:35.473Z,1033.36
2019-02-25T08:33:35.472Z,1033.37
2019-02-25T08:34:35.649Z,1033.34
2019-02-25T08:35:35.459Z,1033.33
2019-02-25T08:36:37.426Z,1033.30
2019-02-25T08:37:35.755Z,1033.34
2019-02-25T08:41:35.734Z,1033.36
2019-02-25T08:43:35.418Z,1033.30
2019-02-25T08:44:35.632Z,1033.33
2019-02-25T08:45:35.407Z,1033.31
2019-02-25T08:47:35.943Z,1033.29
2019-02-25T08:48:35.595Z,1033.28
2019-02-25T08:49:35.582Z,1033.25
2019-02-25T08:50:35.892Z,1033.25
2019-02-25T08:51:35.584Z,1033.24
2019-02-25T08:52:35.360Z,1033.26
2019-02-25T08:55:35.368Z,1033.32
2019-02-25T08:56:35.361Z,1033.33
2019-02-25T08:57:35.360Z,1033.32
2019-02-25T09:01:35.357Z,1033.31
2019-02-25T09:03:35.737Z,1033.32
2019-02-25T09:04:35.325Z,1033.31
2019-02-25T09:05:35.625Z,1033.31
2019-02-25T09:06:35.304Z,1033.32
2019-02-25T09:07:35.305Z,1033.38
2019-02-25T09:08:35.520Z,1033.27
2019-02-25T09:09:35.304Z,1033.28
2019-02-25T09:10:35.601Z,1033.33
2019-02-25T09:11:35.513Z,1033.37
2019-02-25T09:12:38.638Z,1033.35
2019-02-25T09:14:35.695Z,1033.39
2019-02-25T09:15:35.279Z,1033.39
2019-02-25T09:17:35.456Z,1033.38
2019-02-25T09:18:35.484Z,1033.39
2019-02-25T09:19:35.262Z,1033.39
2019-02-25T09:20:35.254Z,1033.43
2019-02-25T09:23:35.448Z,1033.44
2019-02-25T09:25:35.422Z,1033.47
2019-02-25T09:27:35.226Z,1033.47
2019-02-25T09:28:35.216Z,1033.52
2019-02-25T09:29:35.425Z,1033.48
2019-02-25T09:32:36.118Z,1033.43
2019-02-25T09:33:35.218Z,1033.44
2019-02-25T09:35:36.001Z,1033.46
2019-02-25T09:36:35.593Z,1033.51
2019-02-25T09:39:35.385Z,1033.49
2019-02-25T09:40:35.373Z,1033.51
2019-02-25T09:41:35.480Z,1033.47
2019-02-25T09:42:35.169Z,1033.51
2019-02-25T09:43:35.167Z,1033.49
2019-02-25T09:44:35.158Z,1033.53
2019-02-25T09:46:35.563Z,1033.59
2019-02-25T09:47:36.876Z,1033.60
2019-02-25T09:48:35.356Z,1033.57
2019-02-25T09:49:35.136Z,1033.56
2019-02-25T09:50:35.155Z,1033.59
2019-02-25T09:51:35.150Z,1033.58
2019-02-25T09:53:35.141Z,1033.56
2019-02-25T09:54:35.948Z,1033.55
2019-02-25T09:55:35.145Z,1033.59
2019-02-25T09:56:37.267Z,1033.61
2019-02-25T09:57:35.120Z,1033.59
2019-02-25T09:58:35.806Z,1033.59
2019-02-25T10:00:35.308Z,1033.61
2019-02-25T10:01:35.731Z,1033.57
2019-02-25T10:02:35.112Z,1033.58
2019-02-25T10:03:35.105Z,1033.61
2019-02-25T10:05:35.602Z,1033.60
2019-02-25T10:06:35.995Z,1033.60
2019-02-25T10:07:35.282Z,1033.59
2019-02-25T10:08:35.504Z,1033.58
2019-02-25T10:10:35.370Z,1033.63
2019-02-25T10:12:35.267Z,1033.64
2019-02-25T10:13:35.474Z,1033.65
2019-02-25T10:14:35.661Z,1033.64
2019-02-25T10:15:35.060Z,1033.64
2019-02-25T10:17:35.042Z,1033.68
2019-02-25T10:18:35.242Z,1033.68
2019-02-25T10:20:35.233Z,1033.65
2019-02-25T10:21:35.559Z,1033.69
2019-02-25T10:23:35.250Z,1033.64
2019-02-25T10:24:35.027Z,1033.66
2019-02-25T10:26:35.225Z,1033.64
2019-02-25T10:27:35.215Z,1033.62
2019-02-25T10:28:35.018Z,1033.64
2019-02-25T10:29:35.014Z,1033.57
2019-02-25T10:30:35.003Z,1033.57
2019-02-25T10:31:35.215Z,1033.59
2019-02-25T10:32:34.992Z,1033.58
2019-02-25T10:33:35.206Z,1033.58
2019-02-25T10:34:35.396Z,1033.60
2019-02-25T10:36:35.191Z,1033.61
2019-02-25T10:37:36.306Z,1033.55
2019-02-25T10:38:37.478Z,1033.59
2019-02-25T10:39:35.299Z,1033.58
2019-02-25T10:40:35.388Z,1033.58
2019-02-25T10:41:35.605Z,1033.57
2019-02-25T10:43:36.612Z,1033.62
2019-02-25T10:45:36.886Z,1033.63
2019-02-25T10:46:35.568Z,1033.61
2019-02-25T10:47:35.354Z,1033.64
2019-02-25T10:48:35.157Z,1033.61
2019-02-25T10:49:35.364Z,1033.62
2019-02-25T10:50:36.557Z,1033.65
2019-02-25T10:51:36.926Z,1033.64
2019-02-25T10:52:35.155Z,1033.63
2019-02-25T10:54:35.155Z,1033.60
2019-02-25T10:55:35.151Z,1033.60
2019-02-25T10:56:35.650Z,1033.51
2019-02-25T10:57:34.962Z,1033.51
2019-02-25T10:58:36.012Z,1033.53
2019-02-25T11:00:35.743Z,1033.54
2019-02-25T11:01:36.985Z,1033.55
2019-02-25T11:02:43.852Z,1033.53
2019-02-25T11:03:35.117Z,1033.49
2019-02-25T11:04:35.657Z,1033.42
2019-02-25T11:05:35.320Z,1033.41
2019-02-25T11:06:35.983Z,1033.42
2019-02-25T11:07:37.231Z,1033.40
2019-02-25T11:09:35.110Z,1033.37
2019-02-25T11:10:34.897Z,1033.42
2019-02-25T11:11:34.895Z,1033.41
2019-02-25T11:12:35.098Z,1033.40
2019-02-25T11:13:36.663Z,1033.37
2019-02-25T11:14:35.950Z,1033.34
2019-02-25T11:15:35.104Z,1033.30
2019-02-25T11:16:34.906Z,1033.29
2019-02-25T11:18:34.884Z,1033.29
2019-02-25T11:19:34.881Z,1033.32
2019-02-25T11:20:35.896Z,1033.31
2019-02-25T11:22:35.479Z,1033.29
2019-02-25T11:23:35.283Z,1033.29
2019-02-25T11:25:35.279Z,1033.24
2019-02-25T11:26:35.322Z,1033.19
2019-02-25T11:27:37.364Z,1033.16
2019-02-25T11:29:35.063Z,1033.10
2019-02-25T11:32:34.863Z,1033.01
2019-02-25T11:33:34.853Z,1032.98
2019-02-25T11:34:35.660Z,1033.00
2019-02-25T11:35:36.512Z,1032.99
2019-02-25T11:37:35.051Z,1032.95
2019-02-25T11:38:37.266Z,1032.94
2019-02-25T11:39:36.719Z,1032.95
2019-02-25T11:40:38.301Z,1032.91
2019-02-25T11:41:36.528Z,1032.94
2019-02-25T11:42:34.847Z,1032.98
2019-02-25T11:43:34.828Z,1032.98
2019-02-25T11:44:34.830Z,1033.00
2019-02-25T11:45:36.329Z,1032.98
2019-02-25T11:46:34.816Z,1033.01
2019-02-25T11:48:34.819Z,1033.04
2019-02-25T11:49:35.012Z,1033.01
2019-02-25T11:50:34.811Z,1033.00
2019-02-25T11:51:35.022Z,1032.95
2019-02-25T11:52:34.800Z,1032.99
2019-02-25T11:53:35.025Z,1032.95
2019-02-25T11:54:35.019Z,1032.93
2019-02-25T11:55:34.804Z,1032.93
2019-02-25T11:56:35.022Z,1032.89
2019-02-25T11:57:35.004Z,1032.85
2019-02-25T11:58:34.794Z,1032.80
2019-02-25T11:59:35.302Z,1032.77
2019-02-25T12:00:34.810Z,1032.80
2019-02-25T12:01:34.798Z,1032.80
2019-02-25T12:02:35.011Z,1032.78
2019-02-25T12:03:35.077Z,1032.75
2019-02-25T12:05:34.812Z,1032.73
2019-02-25T12:06:34.981Z,1032.72
2019-02-25T12:07:34.995Z,1032.70
2019-02-25T12:08:34.778Z,1032.69
2019-02-25T12:09:34.803Z,1032.65
2019-02-25T12:10:34.778Z,1032.69
2019-02-25T12:11:34.987Z,1032.67
2019-02-25T12:13:34.781Z,1032.69
2019-02-25T12:15:34.770Z,1032.69
2019-02-25T12:16:34.986Z,1032.72
2019-02-25T12:17:35.688Z,1032.72
2019-02-25T12:18:35.165Z,1032.68
2019-02-25T12:19:34.781Z,1032.68
2019-02-25T12:20:34.961Z,1032.72
2019-02-25T12:21:34.978Z,1032.71
2019-02-25T12:22:34.754Z,1032.69
2019-02-25T12:23:34.769Z,1032.71
2019-02-25T12:24:34.737Z,1032.71
2019-02-25T12:26:34.742Z,1032.70
2019-02-25T12:27:34.939Z,1032.70
2019-02-25T12:28:34.746Z,1032.69
2019-02-25T12:29:35.220Z,1032.67
2019-02-25T12:30:34.751Z,1032.66
2019-02-25T12:31:34.939Z,1032.66
2019-02-25T12:32:34.736Z,1032.58
2019-02-25T12:33:35.126Z,1032.55
2019-02-25T12:34:34.946Z,1032.51
2019-02-25T12:35:35.168Z,1032.53
2019-02-25T12:36:34.735Z,1032.51
2019-02-25T12:37:35.848Z,1032.47
2019-02-25T12:38:34.742Z,1032.43
2019-02-25T12:39:34.941Z,1032.44
2019-02-25T12:40:35.018Z,1032.34
2019-02-25T12:41:34.931Z,1032.37
2019-02-25T12:42:36.040Z,1032.35
2019-02-25T12:45:35.233Z,1032.29
2019-02-25T12:47:34.911Z,1032.24
2019-02-25T12:48:34.923Z,1032.18
2019-02-25T12:49:35.017Z,1032.16
2019-02-25T12:50:34.909Z,1032.19
2019-02-25T12:52:34.703Z,1032.11
2019-02-25T12:53:34.921Z,1032.09
2019-02-25T12:55:34.901Z,1031.99
2019-02-25T12:57:34.910Z,1031.94
2019-02-25T13:00:34.703Z,1031.85
2019-02-25T13:01:34.696Z,1031.86
2019-02-25T13:02:34.892Z,1031.82
2019-02-25T13:03:34.706Z,1031.79
2019-02-25T13:04:35.091Z,1031.75
2019-02-25T13:06:34.974Z,1031.68
2019-02-25T13:09:35.096Z,1031.59
2019-02-25T13:10:34.885Z,1031.59
2019-02-25T13:11:35.086Z,1031.56
2019-02-25T13:12:36.281Z,1031.52
2019-02-25T13:13:34.676Z,1031.46
2019-02-25T13:14:35.079Z,1031.43
2019-02-25T13:15:34.673Z,1031.36
2019-02-25T13:16:34.904Z,1031.31
2019-02-25T13:17:34.687Z,1031.27
2019-02-25T13:18:34.673Z,1031.21
2019-02-25T13:21:34.870Z,1031.11
2019-02-25T13:22:35.058Z,1031.07
2019-02-25T13:24:35.202Z,1031.08
2019-02-25T13:25:35.273Z,1031.06
2019-02-25T13:26:36.608Z,1031.04
2019-02-25T13:28:34.648Z,1030.98
2019-02-25T13:30:34.869Z,1031.01
2019-02-25T13:31:35.254Z,1031.02
2019-02-25T13:32:34.842Z,1030.98
2019-02-25T13:33:34.864Z,1030.97
2019-02-25T13:34:34.638Z,1030.94
2019-02-25T13:35:35.255Z,1030.92
2019-02-25T13:36:34.649Z,1030.88
2019-02-25T13:38:34.843Z,1030.85
2019-02-25T13:39:35.562Z,1030.89
2019-02-25T13:43:34.628Z,1030.89
2019-02-25T13:48:34.615Z,1030.92
2019-02-25T13:52:35.026Z,1031.01
2019-02-25T13:55:34.619Z,1030.98
2019-02-25T14:01:35.500Z,1030.92
2019-02-25T14:07:34.807Z,1030.80
2019-02-25T14:09:37.340Z,1030.82
2019-02-25T14:11:34.788Z,1030.79
2019-02-25T14:12:34.599Z,1030.79
2019-02-25T14:13:34.990Z,1030.83
2019-02-25T14:14:34.802Z,1030.81
2019-02-25T14:15:36.497Z,1030.81
2019-02-25T14:16:35.407Z,1030.78
2019-02-25T14:18:35.193Z,1030.79
2019-02-25T14:21:36.453Z,1030.77
2019-02-25T14:24:35.788Z,1030.84
2019-02-25T14:25:34.780Z,1030.83
2019-02-25T14:30:34.566Z,1030.94
2019-02-25T14:32:36.006Z,1030.96
2019-02-25T14:38:37.065Z,1030.95
2019-02-25T14:40:39.320Z,1030.91
2019-02-25T14:41:34.757Z,1030.95
2019-02-25T14:42:36.390Z,1030.90
2019-02-25T14:43:41.786Z,1030.95
2019-02-25T14:45:34.764Z,1030.92
2019-02-25T14:47:37.160Z,1030.96
2019-02-25T14:49:35.795Z,1030.97
2019-02-25T14:50:34.759Z,1030.99
2019-02-25T14:54:35.084Z,1031.02
2019-02-25T14:55:34.546Z,1031.02
2019-02-25T14:56:34.835Z,1031.01
2019-02-25T14:57:35.540Z,1031.01
2019-02-25T14:58:37.701Z,1031.02
2019-02-25T15:03:34.543Z,1030.95
2019-02-25T15:06:36.516Z,1031.01
2019-02-25T15:14:34.721Z,1031.03
2019-02-25T15:15:34.925Z,1031.08
2019-02-25T15:17:34.810Z,1031.06
2019-02-25T15:19:36.519Z,1031.08
2019-02-25T15:20:35.033Z,1031.08
2019-02-25T15:24:35.322Z,1031.19
2019-02-25T15:25:37.226Z,1031.18
2019-02-25T15:29:37.091Z,1031.17
2019-02-25T15:38:35.385Z,1031.12
2019-02-25T15:39:35.134Z,1031.13
2019-02-25T15:46:35.187Z,1031.12
2019-02-25T15:47:34.481Z,1031.11
2019-02-25T15:48:36.951Z,1031.11
2019-02-25T16:03:36.662Z,1031.16
2019-02-25T16:05:36.292Z,1031.19
2019-02-25T16:06:35.629Z,1031.16
2019-02-25T16:07:35.739Z,1031.16
2019-02-25T16:08:34.655Z,1031.16
2019-02-25T16:10:35.282Z,1031.20
2019-02-25T16:11:34.673Z,1031.23
2019-02-25T16:12:36.175Z,1031.21
2019-02-25T16:15:35.367Z,1031.21
2019-02-25T16:17:37.695Z,1031.22
2019-02-25T16:20:34.654Z,1031.27
2019-02-25T16:21:34.440Z,1031.25
2019-02-25T16:25:35.154Z,1031.26
2019-02-25T16:27:35.549Z,1031.29
2019-02-25T16:29:34.846Z,1031.28
2019-02-25T16:30:34.424Z,1031.30
2019-02-25T16:31:37.499Z,1031.32
2019-02-25T16:35:37.317Z,1031.34
2019-02-25T16:40:36.112Z,1031.32
2019-02-25T16:43:34.427Z,1031.33
2019-02-25T16:44:34.608Z,1031.32
2019-02-25T16:45:37.275Z,1031.30
2019-02-25T16:47:35.617Z,1031.32
2019-02-25T16:49:36.186Z,1031.35
2019-02-25T16:50:35.359Z,1031.32
2019-02-25T17:02:36.227Z,1031.51
2019-02-25T17:10:34.774Z,1031.56
2019-02-25T17:11:35.284Z,1031.53
2019-02-25T17:12:34.373Z,1031.54
2019-02-25T17:22:35.467Z,1031.58
2019-02-25T17:23:36.526Z,1031.58
2019-02-25T17:25:35.837Z,1031.61
2019-02-25T17:31:36.164Z,1031.61
2019-02-25T17:42:34.701Z,1031.75
2019-02-25T17:45:36.810Z,1031.69
2019-02-25T17:49:35.822Z,1031.67
2019-02-25T17:51:34.892Z,1031.71
2019-02-25T17:53:34.673Z,1031.69
2019-02-25T17:55:36.257Z,1031.67
2019-02-25T17:58:35.952Z,1031.64
2019-02-25T18:01:34.447Z,1031.68
2019-02-25T18:04:34.839Z,1031.70
2019-02-25T18:05:35.957Z,1031.66
2019-02-25T18:10:35.445Z,1031.62
2019-02-25T18:11:34.643Z,1031.61
2019-02-25T18:15:34.216Z,1031.51
2019-02-25T18:17:36.316Z,1031.51
2019-02-25T18:18:36.622Z,1031.53
2019-02-25T18:22:34.196Z,1031.55
2019-02-25T18:23:36.369Z,1031.58
2019-02-25T18:29:34.929Z,1031.57
2019-02-25T18:32:36.585Z,1031.53
2019-02-25T18:33:34.765Z,1031.55
2019-02-25T18:35:36.369Z,1031.46
2019-02-25T18:37:35.899Z,1031.43
2019-02-25T18:38:35.461Z,1031.45